createdAt,value
2018-06-20T00:00:15.344Z,98.60
2018-06-20T00:02:43.908Z,98.70
2018-06-20T00:05:13.173Z,98.70
2018-06-20T00:07:41.686Z,98.80
2018-06-20T00:10:10.999Z,98.90
2018-06-20T00:12:39.601Z,98.90
2018-06-20T00:15:08.204Z,99.10
2018-06-20T00:17:36.717Z,99.20
2018-06-20T00:20:05.258Z,99.40
2018-06-20T00:22:33.790Z,99.50
2018-06-20T00:25:02.312Z,99.60
2018-06-20T00:27:30.809Z,99.70
2018-06-20T00:29:59.316Z,99.70
2018-06-20T00:32:27.848Z,99.70
2018-06-20T00:34:56.387Z,99.70
2018-06-20T00:37:25.708Z,99.60
2018-06-20T00:39:54.592Z,99.50
2018-06-20T00:42:23.128Z,99.20
2018-06-20T00:44:51.666Z,99.00
2018-06-20T00:47:20.162Z,99.00
2018-06-20T00:49:48.722Z,98.90
2018-06-20T00:52:17.212Z,98.80
2018-06-20T00:54:45.771Z,98.50
2018-06-20T00:57:14.961Z,98.30
2018-06-20T00:59:43.536Z,98.30
2018-06-20T01:02:12.053Z,98.50
2018-06-20T01:04:40.590Z,98.10
2018-06-20T01:07:09.136Z,98.20
2018-06-20T01:09:37.644Z,98.30
2018-06-20T01:12:06.362Z,98.20
2018-06-20T01:14:34.876Z,98.20
2018-06-20T01:17:03.504Z,98.50
2018-06-20T01:19:31.971Z,98.60
2018-06-20T01:22:00.620Z,98.60
2018-06-20T01:24:29.934Z,98.50
2018-06-20T01:26:58.438Z,98.40
2018-06-20T01:29:26.969Z,98.40
2018-06-20T01:31:55.744Z,98.50
2018-06-20T01:34:24.213Z,98.80
2018-06-20T01:36:52.751Z,99.00
2018-06-20T01:39:21.210Z,99.00
2018-06-20T01:41:49.988Z,98.90
2018-06-20T01:44:18.527Z,98.90
2018-06-20T01:46:47.029Z,98.90
2018-06-20T01:49:16.374Z,98.80
2018-06-20T01:51:44.885Z,98.70
2018-06-20T01:54:13.495Z,98.70
2018-06-20T01:56:41.986Z,98.60
2018-06-20T01:59:10.735Z,98.60
2018-06-20T02:01:39.634Z,98.50
2018-06-20T02:04:08.279Z,98.50
2018-06-20T02:06:36.760Z,98.40
2018-06-20T02:09:07.979Z,98.40
2018-06-20T02:11:36.484Z,98.40
2018-06-20T02:14:04.979Z,98.50
2018-06-20T02:16:36.439Z,98.40
2018-06-20T02:19:04.945Z,98.50
2018-06-20T02:21:33.444Z,98.50
2018-06-20T02:24:01.996Z,98.60
2018-06-20T02:26:30.503Z,98.60
2018-06-20T02:28:59.074Z,98.60
2018-06-20T02:31:28.314Z,98.70
2018-06-20T02:33:57.159Z,98.70
2018-06-20T02:36:31.025Z,98.70
2018-06-20T02:39:00.139Z,98.80
2018-06-20T02:41:28.648Z,98.80
2018-06-20T02:43:57.294Z,98.90
2018-06-20T02:46:25.792Z,98.90
2018-06-20T02:48:54.397Z,98.90
2018-06-20T02:51:22.907Z,98.90
2018-06-20T02:53:51.524Z,98.80
2018-06-20T02:56:21.167Z,98.90
2018-06-20T02:58:49.732Z,98.90
2018-06-20T03:01:18.214Z,98.90
2018-06-20T03:03:53.374Z,98.90
2018-06-20T03:06:21.910Z,98.90
2018-06-20T03:08:56.346Z,98.80
2018-06-20T03:11:25.291Z,98.80
2018-06-20T03:13:53.791Z,98.80
2018-06-20T03:16:22.332Z,98.80
2018-06-20T03:18:50.867Z,98.70
2018-06-20T03:21:19.406Z,98.70
2018-06-20T03:23:47.912Z,98.70
2018-06-20T03:26:16.645Z,98.70
2018-06-20T03:28:45.174Z,98.70
2018-06-20T03:31:13.699Z,98.60
2018-06-20T03:33:42.205Z,98.50
2018-06-20T03:36:10.712Z,98.50
2018-06-20T03:38:39.256Z,98.40
2018-06-20T03:41:07.764Z,98.30
2018-06-20T03:43:36.348Z,98.30
2018-06-20T03:46:04.855Z,98.20
2018-06-20T03:48:33.421Z,98.20
2018-06-20T03:51:02.150Z,98.20
2018-06-20T03:53:30.792Z,98.10
2018-06-20T03:55:59.368Z,98.00
2018-06-20T03:58:27.848Z,97.90
2018-06-20T04:00:56.356Z,97.90
2018-06-20T04:03:24.933Z,97.70
2018-06-20T04:05:53.534Z,97.70
2018-06-20T04:08:22.748Z,97.60
2018-06-20T04:10:51.369Z,97.70
2018-06-20T04:13:19.915Z,97.40
2018-06-20T04:15:48.419Z,97.20
2018-06-20T04:18:17.271Z,96.90
2018-06-20T04:20:45.720Z,96.90
2018-06-20T04:23:14.237Z,96.70
2018-06-20T04:25:42.774Z,96.60
2018-06-20T04:28:11.494Z,96.40
2018-06-20T04:30:40.108Z,96.30
2018-06-20T04:33:08.636Z,96.30
2018-06-20T04:35:37.274Z,96.20
2018-06-20T04:38:05.778Z,96.00
2018-06-20T04:40:34.673Z,95.80
2018-06-20T04:43:03.172Z,95.50
2018-06-20T04:45:31.686Z,95.30
2018-06-20T04:48:00.233Z,95.00
2018-06-20T04:50:28.774Z,94.60
2018-06-20T04:52:57.260Z,94.60
2018-06-20T04:55:25.801Z,94.10
2018-06-20T04:57:54.892Z,93.90
2018-06-20T05:00:23.749Z,93.60
2018-06-20T05:02:52.285Z,93.20
2018-06-20T05:05:20.867Z,92.90
2018-06-20T05:07:49.410Z,92.40
2018-06-20T05:10:17.982Z,92.00
2018-06-20T05:12:46.486Z,91.60
2018-06-20T05:15:15.024Z,91.00
2018-06-20T05:17:43.841Z,90.70
2018-06-20T05:20:12.409Z,90.30
2018-06-20T05:22:40.991Z,89.00
2018-06-20T05:25:09.508Z,87.40
2018-06-20T05:27:38.145Z,86.40
2018-06-20T05:30:06.833Z,84.60
2018-06-20T05:32:35.351Z,83.80
2018-06-20T05:35:03.898Z,81.60
2018-06-20T05:37:32.733Z,79.80
2018-06-20T05:40:01.349Z,78.30
2018-06-20T05:42:29.926Z,77.50
2018-06-20T05:44:58.987Z,76.70
2018-06-20T05:47:27.655Z,76.50
2018-06-20T05:49:56.816Z,76.00
2018-06-20T05:52:25.412Z,75.40
2018-06-20T05:54:53.961Z,73.50
2018-06-20T05:57:22.458Z,73.60
2018-06-20T05:59:51.051Z,72.50
2018-06-20T06:02:19.737Z,73.60
2018-06-20T06:04:48.232Z,74.10
2018-06-20T06:07:16.755Z,74.60
2018-06-20T06:09:46.038Z,76.20
2018-06-20T06:12:14.596Z,75.40
2018-06-20T06:14:43.069Z,74.70
2018-06-20T06:17:11.621Z,74.90
2018-06-20T06:19:40.191Z,76.30
2018-06-20T06:22:08.667Z,77.20
2018-06-20T06:24:37.188Z,78.00
2018-06-20T06:27:05.699Z,78.90
2018-06-20T06:29:34.274Z,78.80
2018-06-20T06:32:03.848Z,78.40
2018-06-20T06:34:32.641Z,78.90
